Terminal Aerodrome Forecast
Issued by NWS Wakefield, VA

Home | Current Version | Previous Version | Text Only | Print | Product List | Glossary On
Versions: 1 2 3 4 5 6 7 8 9 10 11 12 13 14 15 16 17 18 19 20 21 22 23 24 25
000
FTUS41 KAKQ 191958 AAA
TAFSBY
TAF AMD
KSBY 191958Z 1920/2018 09013G23KT P6SM OVC025
      TEMPO 1920/1923 SCT030
     FM192300 09012G22KT 5SM BR BKN025 OVC100
     FM200600 12015G25KT 3SM RA BR OVC008
     FM200900 15016KT 2SM RA BR OVC005
     FM201300 18013G19KT 3SM -DZ BR OVC003
     FM201700 22011G18KT P6SM OVC015=

USA.gov is the U.S. government's official web portal to all federal, state and local government web resources and services.